Decoded Metar for K24A ( in ) (IATA:) | Meteo·Mobile Aviation Weather
aviador You're here:

K24A Decoded Metar

in
Report Time2019-02-18 10:40:00
UTC Time2019-02-18 11:02:39
Flight Rules vfr VFR
Wind330° at 05 kt
W.Rank330° ranks 9
Current wind is below 330° avg. (5.6)
Visibility9999 m
Phenomena:N/A
Clouds:Scattered 022 Hf
Broken 090 Hf
Overcast 120 Hf
Expected CloudBase > 400 ft AGL from Temp-Dew spread
Ceiling9,000 ft
Temp07°C
Dew Point06°C (93% RH)
AAT4.3°C
QNH1014 hPa
Raw Report
METAR K24A 181040Z AUTO 33005KT 10SM SCT022 BKN090 OVC120 07/06 A2995
RMK AO2 T00700055=

Extra information for K24A:More info

Social comments